Main page
METAR-TAF:

METAR-TAF

Airports :

Bilbao Airport

Bilbao, Spain

latitude: 43-18N, longitude: 002-56W, elevation: 42 m

Current weather observation

The report was made 32 minutes ago, at 13:00 UTC
Wind 8 kt from the South/Southwest, varying between South/Southeast and West/Southwest
Temperature 23°C
Humidity 50%
Pressure 1017 hPa
Visibility 10 km or more
no clouds below 1500 m and no cumulonimbus

METAR: LEBB 151300Z 20008KT 150V250 CAVOK 23/12 Q1017 NOSIG

Time: 14:32 (13:32 UTC)

Forecast

The report was made 2 hours and 32 minutes ago, at 11:00 UTC
Forecast valid from 15 at 12 UTC to 16 at 12 UTC
Wind 8 kt from the South
Visibility 10 km or more
Few clouds at a height of 4000 ft

TAF: LEBB 151100Z 1512/1612 18008KT 9999 FEW040 TX23/1514Z TN13/1602Z

Weather observations and forecasts of more than 4000 airports (METAR and TAF reports).

The available stations are represented by yellow and red dots on the map.

Hover mouse over dot to see the name of the station.

Then click to see weather observations and forecasts.

To change the map : click on the green buttons with a black cross to zoom in, on the green button with a dash to zoom out, or on the green arrows for adjacent maps.


METAR-TAF: